Time;durP1;ratioP1;P1;durP2;ratioP2;P2;SDS_P1;SDS_P2;PMS_P1;PMS_P2;Temp;Humidity;BMP_temperature;BMP_pressure;BME280_temperature;BME280_humidity;BME280_pressure;Samples;Min_cycle;Max_cycle;Signal;HPM_P1;HPM_P2
2023/07/08 00:00:39;;;;;;;5.60;5.20;;;22.00;80.50;;;;;;4953994;28;20475;-77
2023/07/08 00:03:06;;;;;;;5.90;5.50;;;22.00;80.50;;;;;;4954842;28;20522;-79
2023/07/08 00:05:33;;;;;;;5.87;5.47;;;22.00;80.50;;;;;;4947292;28;20508;-79
2023/07/08 00:08:01;;;;;;;6.20;5.70;;;22.00;80.50;;;;;;4934128;29;20540;-77
2023/07/08 00:10:30;;;;;;;5.40;5.00;;;22.00;80.50;;;;;;4935145;29;20543;-77
2023/07/08 00:12:59;;;;;;;4.90;4.50;;;22.00;80.60;;;;;;4934806;29;20564;-77
2023/07/08 00:15:29;;;;;;;6.23;5.73;;;21.90;80.60;;;;;;4940712;29;20484;-77
2023/07/08 00:17:56;;;;;;;5.53;5.10;;;21.90;80.80;;;;;;4938272;28;20967;-79
2023/07/08 00:20:31;;;;;;;6.37;5.90;;;21.90;80.90;;;;;;4952194;28;20511;-77
2023/07/08 00:23:00;;;;;;;6.10;5.60;;;21.90;81.00;;;;;;4950546;28;20976;-77
2023/07/08 00:25:28;;;;;;;6.90;6.30;;;21.90;81.20;;;;;;4934339;29;20480;-77
2023/07/08 00:27:55;;;;;;;6.37;5.77;;;21.90;81.20;;;;;;4934494;29;20485;-79
2023/07/08 00:30:27;;;;;;;6.87;6.27;;;21.80;80.90;;;;;;4956180;28;20498;-78
2023/07/08 00:32:56;;;;;;;6.30;5.80;;;21.80;80.90;;;;;;4971614;28;20981;-77
2023/07/08 00:35:27;;;;;;;7.27;6.57;;;21.80;80.80;;;;;;4967946;28;20476;-77
2023/07/08 00:38:01;;;;;;;7.63;5.80;;;21.80;80.60;;;;;;4971774;28;20471;-77
2023/07/08 00:40:31;;;;;;;7.33;6.63;;;21.80;80.60;;;;;;4972134;28;20509;-77
2023/07/08 00:43:01;;;;;;;6.70;6.10;;;21.70;80.70;;;;;;4971608;28;20471;-79
2023/07/08 00:45:40;;;;;;;7.20;6.50;;;21.70;80.70;;;;;;4971997;28;20471;-79
2023/07/08 00:48:13;;;;;;;7.30;6.70;;;21.70;80.60;;;;;;4958042;28;20464;-77
2023/07/08 00:50:40;;;;;;;7.20;6.60;;;21.70;80.60;;;;;;4938833;29;21014;-77
2023/07/08 00:53:28;;;;;;;6.63;6.13;;;21.70;80.70;;;;;;4942823;28;20547;-77
2023/07/08 00:56:02;;;;;;;7.43;6.73;;;21.70;80.80;;;;;;4943026;28;20963;-77
2023/07/08 00:58:34;;;;;;;6.63;6.10;;;21.70;80.80;;;;;;4949016;28;20475;-81
2023/07/08 01:01:05;;;;;;;7.20;6.60;;;21.70;80.80;;;;;;4938199;29;20858;-76
2023/07/08 01:03:34;;;;;;;6.93;5.63;;;21.60;80.80;;;;;;4937364;29;20543;-78
2023/07/08 01:06:01;;;;;;;6.00;5.50;;;21.60;80.90;;;;;;4937981;29;20509;-76
2023/07/08 01:08:30;;;;;;;7.53;7.00;;;21.60;81.10;;;;;;4938772;29;20571;-79
2023/07/08 01:11:02;;;;;;;7.33;6.70;;;21.60;81.30;;;;;;4937204;29;20472;-77
2023/07/08 01:13:33;;;;;;;8.23;7.53;;;21.60;81.40;;;;;;4940281;28;20606;-77
2023/07/08 01:16:00;;;;;;;7.97;7.17;;;21.60;81.50;;;;;;4949383;28;20477;-77
2023/07/08 01:18:27;;;;;;;7.40;6.80;;;21.60;81.40;;;;;;4948894;28;20510;-77
2023/07/08 01:20:55;;;;;;;6.13;5.63;;;21.50;81.30;;;;;;4957277;28;20526;-77
2023/07/08 01:23:25;;;;;;;6.83;6.23;;;21.50;81.40;;;;;;4942205;29;20568;-78
2023/07/08 01:25:52;;;;;;;7.13;6.43;;;21.50;81.40;;;;;;4940816;28;20476;-79
2023/07/08 01:28:20;;;;;;;6.40;5.80;;;21.50;81.40;;;;;;4954952;28;20464;-78
2023/07/08 01:30:49;;;;;;;7.37;6.77;;;21.50;81.50;;;;;;4944652;28;20986;-77
2023/07/08 01:33:19;;;;;;;10.27;9.20;;;21.50;81.50;;;;;;4949189;28;20539;-77
2023/07/08 01:35:49;;;;;;;8.20;7.33;;;21.50;80.80;;;;;;4958534;28;20471;-78
2023/07/08 01:38:21;;;;;;;7.60;7.00;;;21.50;80.40;;;;;;4977358;28;20493;-79
2023/07/08 01:40:54;;;;;;;6.63;6.03;;;21.50;80.30;;;;;;4975351;28;20478;-79
2023/07/08 01:43:21;;;;;;;7.13;5.17;;;21.50;80.40;;;;;;4957324;28;20598;-79
2023/07/08 01:45:49;;;;;;;5.20;4.80;;;21.50;80.30;;;;;;4954921;28;20476;-78
2023/07/08 01:48:19;;;;;;;5.57;5.17;;;21.50;80.20;;;;;;4947809;29;20469;-77
2023/07/08 01:50:50;;;;;;;4.37;3.97;;;21.50;80.20;;;;;;4938062;29;20560;-78
2023/07/08 01:53:19;;;;;;;4.80;4.50;;;21.50;80.00;;;;;;4937594;29;20543;-78
2023/07/08 01:55:50;;;;;;;5.33;4.93;;;21.50;80.10;;;;;;4937494;29;20519;-77
2023/07/08 01:58:18;;;;;;;5.30;4.87;;;21.40;80.20;;;;;;4937307;29;20527;-77
2023/07/08 02:00:48;;;;;;;5.70;5.10;;;21.40;80.30;;;;;;4937615;29;20547;-79
2023/07/08 02:03:16;;;;;;;5.80;5.30;;;21.40;80.50;;;;;;4937443;29;20544;-79
2023/07/08 02:05:43;;;;;;;5.73;5.23;;;21.40;80.60;;;;;;4937529;29;20487;-79
2023/07/08 02:08:10;;;;;;;5.23;4.83;;;21.40;80.50;;;;;;4937760;29;20588;-78
2023/07/08 02:10:38;;;;;;;5.10;4.80;;;21.40;80.60;;;;;;4939570;29;20473;-79
2023/07/08 02:13:05;;;;;;;5.60;5.10;;;21.40;80.80;;;;;;4942268;29;20540;-77
2023/07/08 02:15:33;;;;;;;5.90;5.40;;;21.30;80.80;;;;;;4955055;28;20502;-76
2023/07/08 02:18:00;;;;;;;5.50;5.00;;;21.30;80.80;;;;;;4956262;28;21100;-79
2023/07/08 02:20:27;;;;;;;6.20;5.70;;;21.30;80.90;;;;;;4956691;28;20466;-79
2023/07/08 02:22:54;;;;;;;6.17;5.40;;;21.30;81.00;;;;;;4942816;28;20552;-79
2023/07/08 02:25:21;;;;;;;5.43;5.00;;;21.30;81.20;;;;;;4936316;29;20555;-77
2023/07/08 02:27:48;;;;;;;5.03;4.63;;;21.20;81.30;;;;;;4937308;29;20540;-77
2023/07/08 02:30:15;;;;;;;5.67;5.17;;;21.20;81.50;;;;;;4936722;29;20532;-79
2023/07/08 02:32:48;;;;;;;6.17;4.70;;;21.20;81.70;;;;;;4937318;29;20476;-77
2023/07/08 02:35:15;;;;;;;5.70;5.20;;;21.20;81.90;;;;;;4942787;28;20483;-79
2023/07/08 02:37:42;;;;;;;5.33;4.83;;;21.20;82.00;;;;;;4956240;28;20471;-78
2023/07/08 02:40:11;;;;;;;5.20;4.70;;;21.20;82.10;;;;;;4955603;28;20520;-77
2023/07/08 02:42:38;;;;;;;5.20;4.80;;;21.10;82.20;;;;;;4956135;28;20954;-77
2023/07/08 02:45:07;;;;;;;4.93;4.53;;;21.10;82.20;;;;;;4954890;28;20850;-77
2023/07/08 02:47:34;;;;;;;5.50;5.00;;;21.10;82.30;;;;;;4949389;28;20466;-76
2023/07/08 02:50:02;;;;;;;4.80;4.33;;;21.10;82.40;;;;;;4936769;28;20555;-77
2023/07/08 02:52:29;;;;;;;4.40;4.03;;;21.10;82.50;;;;;;4936891;28;20548;-77
2023/07/08 02:54:56;;;;;;;6.33;5.53;;;21.10;82.50;;;;;;5130866;23;20494;-77
2023/07/08 02:57:23;;;;;;;5.67;5.17;;;21.10;82.40;;;;;;4936735;29;20477;-76
2023/07/08 02:59:50;;;;;;;5.13;4.70;;;21.00;82.30;;;;;;4936260;29;20468;-76
2023/07/08 03:02:17;;;;;;;5.00;4.60;;;21.00;82.40;;;;;;4937110;29;20492;-79
2023/07/08 03:04:49;;;;;;;4.50;4.20;;;21.10;82.70;;;;;;4936045;29;21003;-76
2023/07/08 03:07:18;;;;;;;4.93;4.53;;;21.00;83.50;;;;;;4935676;29;20468;-77
2023/07/08 03:09:45;;;;;;;5.80;5.40;;;21.00;83.00;;;;;;4917225;29;20995;-76
2023/07/08 03:12:13;;;;;;;7.33;6.73;;;21.00;83.20;;;;;;4918145;29;20469;-79
2023/07/08 03:14:40;;;;;;;6.47;5.63;;;21.00;83.80;;;;;;4923311;29;20564;-76
2023/07/08 03:17:07;;;;;;;9.43;6.27;;;20.90;84.10;;;;;;4935354;29;20544;-76
2023/07/08 03:19:37;;;;;;;9.57;5.67;;;20.90;84.00;;;;;;4936962;29;20568;-79
2023/07/08 03:22:05;;;;;;;5.80;5.30;;;20.90;84.10;;;;;;4936835;29;20490;-79
2023/07/08 03:24:33;;;;;;;7.20;5.50;;;20.90;84.20;;;;;;4936070;29;20563;-75
2023/07/08 03:27:04;;;;;;;6.60;5.47;;;20.80;84.40;;;;;;4935964;29;20476;-75
2023/07/08 03:29:32;;;;;;;8.13;6.63;;;20.90;84.80;;;;;;4936676;29;20480;-76
2023/07/08 03:32:00;;;;;;;5.53;5.03;;;20.80;85.20;;;;;;4935738;29;20555;-78
2023/07/08 03:34:26;;;;;;;6.17;5.57;;;20.80;85.50;;;;;;4936585;29;20491;-76
2023/07/08 03:36:53;;;;;;;6.13;5.57;;;20.70;85.50;;;;;;4936073;29;20871;-79
2023/07/08 03:39:23;;;;;;;5.90;5.30;;;20.70;86.10;;;;;;4935710;29;20584;-76
2023/07/08 03:41:52;;;;;;;5.90;5.40;;;20.70;86.10;;;;;;4936020;29;20807;-76
2023/07/08 03:44:19;;;;;;;5.73;5.33;;;20.70;86.20;;;;;;4936443;29;20479;-79
2023/07/08 03:46:52;;;;;;;5.10;4.70;;;20.70;86.20;;;;;;4935357;29;20480;-76
2023/07/08 03:49:23;;;;;;;7.00;5.87;;;20.70;86.30;;;;;;4936608;29;20468;-76
2023/07/08 03:51:52;;;;;;;5.07;4.67;;;20.70;86.70;;;;;;4934755;29;20484;-79
2023/07/08 03:54:20;;;;;;;6.83;5.53;;;20.70;86.60;;;;;;4935681;29;20544;-79
2023/07/08 03:56:47;;;;;;;6.20;5.70;;;20.70;86.90;;;;;;4936420;29;20551;-79
2023/07/08 03:59:16;;;;;;;5.80;5.20;;;20.60;87.10;;;;;;4936141;29;20827;-79
2023/07/08 04:01:43;;;;;;;5.83;5.33;;;20.60;87.30;;;;;;4936092;29;20535;-76
2023/07/08 04:04:14;;;;;;;5.30;4.90;;;20.60;87.20;;;;;;4935510;29;20492;-79
2023/07/08 04:06:42;;;;;;;6.47;5.53;;;20.60;87.30;;;;;;4936697;29;20479;-78
2023/07/08 04:09:09;;;;;;;6.57;5.27;;;20.60;87.40;;;;;;4934996;29;20504;-76
2023/07/08 04:11:37;;;;;;;5.90;5.40;;;20.60;87.60;;;;;;4935840;29;20873;-79
2023/07/08 04:14:04;;;;;;;5.30;4.83;;;20.60;87.60;;;;;;4935789;29;20863;-79
2023/07/08 04:16:45;;;;;;;6.00;5.40;;;20.60;88.30;;;;;;4935446;29;20472;-76
2023/07/08 04:19:14;;;;;;;6.60;4.50;;;20.60;87.40;;;;;;4935423;29;20476;-76
2023/07/08 04:21:42;;;;;;;6.80;5.20;;;20.70;87.30;;;;;;4937811;29;20476;-76
2023/07/08 04:24:11;;;;;;;5.87;5.27;;;20.60;87.30;;;;;;4939183;29;20476;-76
2023/07/08 04:26:39;;;;;;;5.30;4.90;;;20.60;87.30;;;;;;4939817;29;20978;-76
2023/07/08 04:29:07;;;;;;;5.07;4.67;;;20.70;87.40;;;;;;4939073;29;21049;-79
2023/07/08 04:31:35;;;;;;;5.80;5.13;;;20.70;87.40;;;;;;4939577;29;20483;-76
2023/07/08 04:34:02;;;;;;;4.93;4.53;;;20.70;87.60;;;;;;4938093;29;20882;-76
2023/07/08 04:36:29;;;;;;;6.20;4.80;;;20.80;87.60;;;;;;4939474;29;20548;-76
2023/07/08 04:38:57;;;;;;;5.00;4.70;;;20.80;87.40;;;;;;4939305;29;20511;-81
2023/07/08 04:41:27;;;;;;;6.63;5.40;;;20.80;87.40;;;;;;4939358;29;20465;-77
2023/07/08 04:43:57;;;;;;;5.00;4.60;;;20.90;87.30;;;;;;4939312;29;20485;-76
2023/07/08 04:46:36;;;;;;;4.97;4.57;;;20.90;86.80;;;;;;4938949;29;20475;-76
2023/07/08 04:49:06;;;;;;;4.83;4.53;;;20.90;86.60;;;;;;4939169;29;20480;-80
2023/07/08 04:51:33;;;;;;;5.37;4.87;;;21.00;87.40;;;;;;4938640;29;20997;-77
2023/07/08 04:54:00;;;;;;;4.60;4.30;;;21.00;86.40;;;;;;4938115;28;20543;-79
2023/07/08 04:56:37;;;;;;;4.40;4.00;;;21.10;86.30;;;;;;4939139;29;20477;-76
2023/07/08 04:59:04;;;;;;;3.97;3.70;;;21.20;86.90;;;;;;4938812;29;20473;-80
2023/07/08 05:01:32;;;;;;;4.77;4.37;;;21.30;86.30;;;;;;4938766;29;20496;-77
2023/07/08 05:04:00;;;;;;;3.70;3.50;;;21.30;86.30;;;;;;4944397;28;20464;-80
2023/07/08 05:06:29;;;;;;;4.73;4.33;;;21.40;86.50;;;;;;4938236;29;20906;-77
2023/07/08 05:08:56;;;;;;;5.07;4.03;;;21.40;86.50;;;;;;4939346;29;20504;-80
2023/07/08 05:11:23;;;;;;;4.73;4.33;;;21.50;85.60;;;;;;4938666;29;20686;-79
2023/07/08 05:13:50;;;;;;;4.40;4.10;;;21.50;85.00;;;;;;4939170;29;20559;-80
2023/07/08 05:16:17;;;;;;;5.17;4.67;;;21.60;84.60;;;;;;4938183;29;20484;-76
2023/07/08 05:18:46;;;;;;;4.70;4.20;;;21.60;84.30;;;;;;4930915;29;20861;-75
2023/07/08 05:21:13;;;;;;;4.30;4.00;;;21.70;84.70;;;;;;4937878;29;20566;-79
2023/07/08 05:23:43;;;;;;;4.90;4.57;;;21.70;85.00;;;;;;4938766;29;20496;-79
2023/07/08 05:26:10;;;;;;;4.30;3.90;;;21.80;84.90;;;;;;4938189;29;20568;-78
2023/07/08 05:28:37;;;;;;;7.50;4.70;;;21.80;84.60;;;;;;4938718;29;20552;-76
2023/07/08 05:31:04;;;;;;;3.70;3.40;;;21.90;84.50;;;;;;4938236;29;20487;-79
2023/07/08 05:33:32;;;;;;;4.07;3.77;;;22.00;84.20;;;;;;4937443;29;20547;-79
2023/07/08 05:36:00;;;;;;;5.23;4.83;;;22.00;84.60;;;;;;4943295;29;20536;-79
2023/07/08 05:38:27;;;;;;;3.57;3.27;;;22.10;85.00;;;;;;4938566;29;20575;-79
2023/07/08 05:40:57;;;;;;;4.53;4.10;;;22.10;85.30;;;;;;4938713;29;20477;-76
2023/07/08 05:43:25;;;;;;;5.80;5.30;;;22.20;85.80;;;;;;4937740;29;20495;-76
2023/07/08 05:45:52;;;;;;;4.70;4.40;;;22.20;85.40;;;;;;4938483;29;20634;-77
2023/07/08 05:48:19;;;;;;;4.67;4.10;;;22.30;85.70;;;;;;4937863;29;20485;-78
2023/07/08 05:50:46;;;;;;;4.20;3.90;;;22.30;86.30;;;;;;4937858;29;20556;-76
2023/07/08 05:53:14;;;;;;;5.40;4.90;;;22.40;86.70;;;;;;4937230;29;20473;-79
2023/07/08 05:55:45;;;;;;;4.90;4.37;;;22.40;86.70;;;;;;4938148;29;20475;-79
2023/07/08 05:58:15;;;;;;;6.03;4.30;;;22.50;87.10;;;;;;4938177;29;20480;-76
2023/07/08 06:00:42;;;;;;;4.23;3.90;;;22.60;86.80;;;;;;4938059;29;20501;-79
2023/07/08 06:03:09;;;;;;;4.03;3.73;;;22.70;87.00;;;;;;4938337;29;20862;-79
2023/07/08 06:05:37;;;;;;;5.77;5.10;;;22.80;85.70;;;;;;4937276;29;20576;-76
2023/07/08 06:08:04;;;;;;;8.30;7.67;;;22.90;85.60;;;;;;4927518;29;20476;-76
2023/07/08 06:10:31;;;;;;;10.60;9.60;;;23.00;86.20;;;;;;4937707;29;20468;-79
2023/07/08 06:12:58;;;;;;;9.63;8.80;;;23.10;86.80;;;;;;4937171;29;20485;-79
2023/07/08 06:15:27;;;;;;;6.70;6.10;;;23.20;87.20;;;;;;4937726;29;20488;-79
2023/07/08 06:17:53;;;;;;;5.47;4.97;;;23.30;86.40;;;;;;4937701;29;20468;-76
2023/07/08 06:20:20;;;;;;;5.10;4.70;;;23.50;84.20;;;;;;4937461;29;20548;-78
2023/07/08 06:22:47;;;;;;;6.30;5.80;;;23.60;84.30;;;;;;4938308;29;20464;-78
2023/07/08 06:25:16;;;;;;;5.93;5.33;;;23.80;84.70;;;;;;4937099;29;20472;-79
2023/07/08 06:27:45;;;;;;;10.47;9.43;;;23.90;85.40;;;;;;4938258;29;20476;-78
2023/07/08 06:30:12;;;;;;;6.93;6.33;;;24.10;85.70;;;;;;4937365;29;20532;-79
2023/07/08 06:32:41;;;;;;;10.80;9.77;;;24.30;83.60;;;;;;4937648;29;20509;-80
2023/07/08 06:35:09;;;;;;;12.30;11.10;;;24.50;83.60;;;;;;4936923;29;20560;-80
2023/07/08 06:37:36;;;;;;;8.47;7.87;;;24.60;83.80;;;;;;4935712;29;20503;-78
2023/07/08 06:40:03;;;;;;;9.53;8.67;;;24.80;84.20;;;;;;4937569;29;20973;-79
2023/07/08 06:42:30;;;;;;;6.57;6.07;;;25.00;83.70;;;;;;4937642;29;20469;-77
2023/07/08 06:44:58;;;;;;;5.63;5.13;;;25.20;82.40;;;;;;4939199;29;20895;-79
2023/07/08 06:47:25;;;;;;;8.73;8.03;;;25.40;82.30;;;;;;4938810;29;20473;-75
2023/07/08 06:49:56;;;;;;;8.20;7.40;;;25.50;82.10;;;;;;4938842;29;20564;-81
2023/07/08 06:52:23;;;;;;;7.47;6.77;;;25.70;82.40;;;;;;4937288;29;20571;-76
2023/07/08 06:54:52;;;;;;;7.53;6.90;;;25.80;82.40;;;;;;4946718;29;20535;-80
2023/07/08 06:57:19;;;;;;;5.47;5.07;;;26.00;82.30;;;;;;4955908;29;20819;-77
2023/07/08 06:59:45;;;;;;;6.90;5.57;;;26.10;82.60;;;;;;4956121;29;20494;-78
2023/07/08 07:02:13;;;;;;;8.63;7.27;;;26.30;79.50;;;;;;4955959;29;20511;-78
2023/07/08 07:04:40;;;;;;;7.03;6.33;;;26.40;80.60;;;;;;4957671;28;20468;-79
2023/07/08 07:07:08;;;;;;;7.23;6.53;;;26.60;80.20;;;;;;4956226;29;20826;-79
2023/07/08 07:09:35;;;;;;;5.87;4.73;;;26.80;79.50;;;;;;4956273;29;20475;-78
2023/07/08 07:12:03;;;;;;;6.50;5.90;;;26.90;75.70;;;;;;4957074;29;20548;-78
2023/07/08 07:14:30;;;;;;;11.70;5.87;;;27.10;76.70;;;;;;4957050;28;20483;-78
2023/07/08 07:16:58;;;;;;;9.00;7.00;;;27.20;77.30;;;;;;4956673;29;20482;-76
2023/07/08 07:19:25;;;;;;;7.17;6.57;;;27.40;77.30;;;;;;4954368;29;20485;-77
2023/07/08 07:21:52;;;;;;;6.17;5.77;;;27.50;77.20;;;;;;4956336;29;20479;-78
2023/07/08 07:24:21;;;;;;;6.10;4.40;;;27.70;77.00;;;;;;4955646;28;20472;-79
2023/07/08 07:26:48;;;;;;;5.70;4.80;;;27.80;76.10;;;;;;4956208;29;20467;-81
2023/07/08 07:29:18;;;;;;;4.30;3.90;;;27.90;75.80;;;;;;4955511;29;20483;-79
2023/07/08 07:31:47;;;;;;;4.70;4.27;;;28.00;75.40;;;;;;4954581;29;21028;-79
2023/07/08 07:34:15;;;;;;;6.17;4.57;;;28.10;75.80;;;;;;4955284;28;20553;-77
2023/07/08 07:36:42;;;;;;;7.17;6.47;;;28.20;75.70;;;;;;4957267;29;20475;-77
2023/07/08 07:39:09;;;;;;;7.03;6.17;;;28.40;72.40;;;;;;4954928;29;20487;-77
2023/07/08 07:41:38;;;;;;;5.20;4.80;;;28.50;73.80;;;;;;4955491;29;20471;-77
2023/07/08 07:44:05;;;;;;;5.87;5.37;;;28.60;72.30;;;;;;4956255;28;20483;-77
2023/07/08 07:46:32;;;;;;;5.97;5.03;;;28.80;72.60;;;;;;4955916;29;20491;-79
2023/07/08 07:48:59;;;;;;;5.07;4.67;;;29.00;72.90;;;;;;4947071;29;20566;-80
2023/07/08 07:51:26;;;;;;;5.60;5.10;;;29.10;73.00;;;;;;4954959;29;20482;-76
2023/07/08 07:53:54;;;;;;;4.73;4.30;;;29.30;72.00;;;;;;4953261;28;20511;-80
2023/07/08 07:56:23;;;;;;;5.00;4.60;;;29.30;70.60;;;;;;4934766;29;20970;-77
2023/07/08 07:58:51;;;;;;;6.70;5.17;;;29.40;70.50;;;;;;4936034;29;20476;-78
2023/07/08 08:01:19;;;;;;;7.40;6.20;;;29.50;71.10;;;;;;4935697;29;20480;-80
2023/07/08 08:03:54;;;;;;;5.43;5.00;;;29.60;71.10;;;;;;4936021;28;20479;-80
2023/07/08 08:06:30;;;;;;;7.23;6.17;;;29.70;70.60;;;;;;4939216;29;20814;-78
2023/07/08 08:08:57;;;;;;;21.20;14.40;;;29.80;70.00;;;;;;4937545;29;20925;-80
2023/07/08 08:11:32;;;;;;;15.20;9.53;;;29.90;69.90;;;;;;4940076;29;20504;-77
2023/07/08 08:14:01;;;;;;;8.63;6.57;;;29.90;68.80;;;;;;4935033;29;20483;-78
2023/07/08 08:16:28;;;;;;;5.67;5.27;;;30.00;68.70;;;;;;4936209;29;20511;-76
2023/07/08 08:18:55;;;;;;;16.03;13.43;;;30.00;67.60;;;;;;4935298;29;20841;-80
2023/07/08 08:21:22;;;;;;;8.37;7.37;;;30.10;67.60;;;;;;4935210;29;20559;-81
2023/07/08 08:23:49;;;;;;;5.00;4.60;;;30.20;67.80;;;;;;4936156;29;20890;-78
2023/07/08 08:26:16;;;;;;;11.33;9.67;;;30.20;66.30;;;;;;4938050;29;20835;-79
2023/07/08 08:28:43;;;;;;;5.37;4.90;;;30.40;67.10;;;;;;4936322;29;20499;-80
2023/07/08 08:31:12;;;;;;;7.10;6.50;;;30.40;65.70;;;;;;4935664;29;20473;-78
2023/07/08 08:33:39;;;;;;;5.40;4.23;;;30.50;67.10;;;;;;4937197;29;20552;-80
2023/07/08 08:36:06;;;;;;;7.30;6.60;;;30.50;65.50;;;;;;4935867;29;20535;-80
2023/07/08 08:38:33;;;;;;;10.27;6.80;;;30.60;65.50;;;;;;4936410;29;20548;-77
2023/07/08 08:41:10;;;;;;;8.63;7.83;;;30.60;65.40;;;;;;4935149;29;21062;-76
2023/07/08 08:43:40;;;;;;;5.37;4.87;;;30.70;65.70;;;;;;4935352;29;20500;-80
2023/07/08 08:46:16;;;;;;;10.47;7.47;;;30.70;64.20;;;;;;4935092;29;20472;-77
2023/07/08 08:48:50;;;;;;;8.20;7.50;;;30.70;65.00;;;;;;4934707;29;20543;-78
2023/07/08 08:51:17;;;;;;;5.30;4.90;;;30.70;64.90;;;;;;4935692;29;20547;-78
2023/07/08 08:53:47;;;;;;;3.93;3.73;;;30.70;64.00;;;;;;4933776;29;21010;-79
2023/07/08 08:56:22;;;;;;;6.07;5.50;;;30.60;62.30;;;;;;4913348;29;20465;-80
2023/07/08 08:58:56;;;;;;;6.60;3.40;;;30.60;62.60;;;;;;4931909;29;20966;-79
2023/07/08 09:01:25;;;;;;;4.10;3.80;;;30.50;61.20;;;;;;4934840;29;20508;-78
2023/07/08 09:03:58;;;;;;;5.07;4.67;;;30.50;60.30;;;;;;4934043;29;20560;-76
2023/07/08 09:06:28;;;;;;;3.53;3.13;;;30.50;59.00;;;;;;4935299;29;20822;-76
2023/07/08 09:08:57;;;;;;;3.80;3.60;;;30.50;57.50;;;;;;4937211;29;20488;-76
2023/07/08 09:11:36;;;;;;;5.47;4.40;;;30.40;57.30;;;;;;4939612;29;20468;-79
2023/07/08 09:14:04;;;;;;;4.37;4.07;;;30.40;58.90;;;;;;4939337;29;20508;-79
2023/07/08 09:16:44;;;;;;;4.07;3.67;;;30.40;59.10;;;;;;4939789;29;20555;-80
2023/07/08 09:19:17;;;;;;;5.40;4.90;;;30.40;58.20;;;;;;4938829;29;20954;-78
2023/07/08 09:21:50;;;;;;;3.47;3.17;;;30.40;58.80;;;;;;4939553;29;20515;-80
2023/07/08 09:24:20;;;;;;;4.23;2.90;;;30.40;55.10;;;;;;4938442;29;20457;-79
2023/07/08 09:26:52;;;;;;;4.43;3.47;;;30.30;54.60;;;;;;4939333;29;20560;-77
2023/07/08 09:29:22;;;;;;;4.60;4.20;;;30.30;55.40;;;;;;4937331;29;20488;-80
2023/07/08 09:31:51;;;;;;;3.30;3.10;;;30.30;55.60;;;;;;4937987;29;20993;-79
2023/07/08 09:34:22;;;;;;;5.50;3.17;;;30.30;55.30;;;;;;4937941;29;20525;-80
2023/07/08 09:36:51;;;;;;;4.40;4.00;;;30.30;54.10;;;;;;4938307;29;20476;-80
2023/07/08 09:39:20;;;;;;;4.50;4.10;;;30.30;54.40;;;;;;4937097;29;20544;-77
2023/07/08 09:41:50;;;;;;;3.87;3.57;;;30.30;53.40;;;;;;4937769;29;20511;-77
2023/07/08 09:44:28;;;;;;;4.37;3.97;;;30.30;52.80;;;;;;4937687;29;20473;-80
2023/07/08 09:46:58;;;;;;;4.27;3.90;;;30.30;52.40;;;;;;4938231;29;20536;-76
2023/07/08 09:49:29;;;;;;;3.30;3.00;;;30.20;53.10;;;;;;4938214;29;20528;-76
2023/07/08 09:51:56;;;;;;;2.90;2.70;;;30.20;50.50;;;;;;4938889;29;20851;-76
2023/07/08 09:54:24;;;;;;;3.00;2.70;;;30.10;50.60;;;;;;4942480;29;20547;-76
2023/07/08 09:57:01;;;;;;;3.07;2.87;;;30.10;50.70;;;;;;4956663;29;20495;-76
2023/07/08 09:59:35;;;;;;;2.80;2.60;;;30.10;50.50;;;;;;4958307;29;20534;-80
2023/07/08 10:02:21;;;;;;;3.17;2.97;;;30.10;51.00;;;;;;4957811;29;20471;-77
2023/07/08 10:04:48;;;;;;;3.60;3.30;;;30.10;51.00;;;;;;4957307;28;20471;-78
2023/07/08 10:07:18;;;;;;;3.23;2.93;;;30.00;51.20;;;;;;4957327;29;20503;-80
2023/07/08 10:09:49;;;;;;;3.87;3.50;;;30.00;50.80;;;;;;4956363;29;20563;-80
2023/07/08 10:12:17;;;;;;;3.50;3.23;;;30.00;51.20;;;;;;4958941;29;20547;-80
2023/07/08 10:14:49;;;;;;;3.87;3.57;;;30.00;51.90;;;;;;4958858;28;20593;-78
2023/07/08 10:17:21;;;;;;;3.77;3.47;;;30.00;52.00;;;;;;4948683;29;20470;-77
2023/07/08 10:19:50;;;;;;;7.83;4.27;;;30.10;51.40;;;;;;4958899;28;20543;-79
2023/07/08 10:22:31;;;;;;;4.97;4.50;;;30.10;52.90;;;;;;4962162;29;20490;-80
2023/07/08 10:25:10;;;;;;;5.30;3.93;;;30.10;54.30;;;;;;4964857;28;20981;-79
2023/07/08 10:27:45;;;;;;;3.80;3.60;;;30.10;52.80;;;;;;4962243;29;20542;-80
2023/07/08 10:30:23;;;;;;;3.83;3.60;;;30.10;51.40;;;;;;4961184;29;20562;-78
2023/07/08 10:33:13;;;;;;;3.80;3.17;;;30.10;51.20;;;;;;4961326;29;20472;-79
2023/07/08 10:35:43;;;;;;;3.67;3.37;;;30.20;50.90;;;;;;4961516;28;20500;-80
2023/07/08 10:38:33;;;;;;;3.50;3.00;;;30.10;50.00;;;;;;4959495;29;20542;-78
2023/07/08 10:41:05;;;;;;;3.40;3.17;;;30.10;49.20;;;;;;4958457;29;20460;-77
2023/07/08 10:43:51;;;;;;;3.47;3.27;;;30.10;49.90;;;;;;4959132;28;20487;-80
2023/07/08 10:46:27;;;;;;;4.80;4.50;;;30.10;50.30;;;;;;4962553;29;20500;-79
2023/07/08 10:49:13;;;;;;;4.43;4.03;;;30.10;50.10;;;;;;4961665;29;20463;-79
2023/07/08 10:51:47;;;;;;;3.73;3.43;;;30.10;50.10;;;;;;4960746;29;20460;-77
2023/07/08 10:54:35;;;;;;;6.93;3.63;;;30.20;50.30;;;;;;4960505;28;20467;-80
2023/07/08 10:57:14;;;;;;;4.00;3.70;;;30.20;50.00;;;;;;4958719;29;20466;-79
2023/07/08 10:59:55;;;;;;;3.60;3.30;;;30.20;50.20;;;;;;4958312;29;20531;-79
2023/07/08 11:02:47;;;;;;;3.10;2.90;;;30.20;50.40;;;;;;4957852;29;20517;-79
2023/07/08 11:05:27;;;;;;;3.60;3.40;;;30.20;50.00;;;;;;4957826;28;20540;-80
2023/07/08 11:08:01;;;;;;;3.30;3.07;;;30.20;49.60;;;;;;4957211;29;20842;-80
2023/07/08 11:10:35;;;;;;;3.23;2.93;;;30.20;50.30;;;;;;4957984;29;20870;-79
2023/07/08 11:13:06;;;;;;;2.97;2.77;;;30.20;49.20;;;;;;4956904;29;20550;-76
2023/07/08 11:15:44;;;;;;;3.27;2.87;;;30.20;49.00;;;;;;4956292;28;20790;-77
2023/07/08 11:18:17;;;;;;;4.30;3.17;;;30.20;48.90;;;;;;4955561;29;20467;-78
2023/07/08 11:20:54;;;;;;;3.77;3.40;;;30.20;49.30;;;;;;4956907;29;20496;-78
2023/07/08 11:23:30;;;;;;;2.93;2.77;;;30.10;47.90;;;;;;4955799;29;20812;-78
2023/07/08 11:26:08;;;;;;;3.60;3.40;;;30.10;48.00;;;;;;4956909;29;20518;-80
2023/07/08 11:28:35;;;;;;;3.10;2.90;;;30.20;48.00;;;;;;4956820;29;20857;-80
2023/07/08 11:31:05;;;;;;;3.30;3.10;;;30.20;48.20;;;;;;4954783;28;20941;-77
2023/07/08 11:33:33;;;;;;;3.17;2.80;;;30.20;48.40;;;;;;4955210;28;20551;-78
2023/07/08 11:36:03;;;;;;;3.67;3.47;;;30.10;48.10;;;;;;4953827;29;20858;-80
2023/07/08 11:38:33;;;;;;;4.17;3.87;;;30.10;48.10;;;;;;4955082;29;20472;-80
2023/07/08 11:41:04;;;;;;;4.27;3.87;;;30.20;49.60;;;;;;4953830;29;20497;-77
2023/07/08 11:43:45;;;;;;;3.80;3.50;;;30.20;50.10;;;;;;4955257;28;20495;-80
2023/07/08 11:46:19;;;;;;;3.57;3.27;;;30.20;49.40;;;;;;4955625;29;20474;-80
2023/07/08 11:48:49;;;;;;;3.30;3.10;;;30.20;49.40;;;;;;4955925;29;20475;-77
2023/07/08 11:51:20;;;;;;;3.07;2.87;;;30.20;48.60;;;;;;4954672;29;20969;-77
2023/07/08 11:53:52;;;;;;;3.40;2.83;;;30.20;48.70;;;;;;4954031;28;20495;-79
2023/07/08 11:56:26;;;;;;;3.43;3.10;;;30.20;48.80;;;;;;4953177;29;20483;-77
2023/07/08 11:59:14;;;;;;;4.13;3.83;;;30.20;49.10;;;;;;4955689;29;20555;-77
2023/07/08 12:01:49;;;;;;;3.43;3.23;;;30.20;48.60;;;;;;4955405;29;20467;-79
2023/07/08 12:04:35;;;;;;;3.30;3.10;;;30.20;49.00;;;;;;4954584;28;20475;-79
2023/07/08 12:07:12;;;;;;;4.10;3.27;;;30.20;48.40;;;;;;4953352;29;20455;-78
2023/07/08 12:09:46;;;;;;;3.50;3.30;;;30.20;48.40;;;;;;4954522;29;20475;-79
2023/07/08 12:12:22;;;;;;;3.27;3.07;;;30.20;48.80;;;;;;4954497;29;20477;-80
2023/07/08 12:14:50;;;;;;;3.57;3.27;;;30.20;49.10;;;;;;4954360;28;20486;-80
2023/07/08 12:17:17;;;;;;;3.00;2.80;;;30.20;49.50;;;;;;4954218;29;20499;-78
2023/07/08 12:19:51;;;;;;;3.63;3.40;;;30.20;48.20;;;;;;4954588;29;20960;-77
2023/07/08 12:22:19;;;;;;;3.30;3.00;;;30.20;48.40;;;;;;4955186;29;20507;-78
2023/07/08 12:24:47;;;;;;;3.30;2.90;;;30.20;48.50;;;;;;4954744;28;20475;-77
2023/07/08 12:27:13;;;;;;;3.70;3.40;;;30.20;48.40;;;;;;4955255;29;20499;-77
2023/07/08 12:29:40;;;;;;;3.60;3.30;;;30.20;47.90;;;;;;4953606;29;20607;-77
2023/07/08 12:32:13;;;;;;;3.90;3.50;;;30.20;48.00;;;;;;4954707;29;20843;-77
2023/07/08 12:34:40;;;;;;;4.23;3.93;;;30.20;48.20;;;;;;4954715;28;20533;-77
2023/07/08 12:37:13;;;;;;;4.70;4.23;;;30.30;49.30;;;;;;4953985;29;20471;-77
2023/07/08 12:39:41;;;;;;;3.97;3.67;;;30.20;49.40;;;;;;4952917;29;20961;-76
2023/07/08 12:42:12;;;;;;;4.00;3.80;;;30.20;49.90;;;;;;4955194;28;20546;-80
2023/07/08 12:44:43;;;;;;;3.77;3.47;;;30.20;48.80;;;;;;4958070;28;20467;-79
2023/07/08 12:47:10;;;;;;;3.43;3.13;;;30.20;48.60;;;;;;4958015;29;20542;-76
2023/07/08 12:49:37;;;;;;;3.77;3.47;;;30.20;49.20;;;;;;4958242;29;20555;-77
2023/07/08 12:52:05;;;;;;;3.30;3.10;;;30.20;50.00;;;;;;4957479;29;20467;-77
2023/07/08 12:54:33;;;;;;;3.40;3.10;;;30.10;48.50;;;;;;4955706;28;20555;-77
2023/07/08 12:57:02;;;;;;;3.60;3.30;;;30.00;48.00;;;;;;4957770;29;20472;-77
2023/07/08 12:59:31;;;;;;;3.17;2.97;;;30.00;47.90;;;;;;4957671;29;20957;-77